Time;durP1;ratioP1;P1;durP2;ratioP2;P2;SDS_P1;SDS_P2;PMS_P1;PMS_P2;Temp;Humidity;BMP_temperature;BMP_pressure;BME280_temperature;BME280_humidity;BME280_pressure;Samples;Min_cycle;Max_cycle;Signal;HPM_P1;HPM_P2
2021/06/03 00:00:47;;;;;;;9.67;5.07;;;10.60;99.90;;;;;;4142194;28;20132;-64
2021/06/03 00:02:49;;;;;;;6.03;4.27;;;10.60;99.90;;;;;;4142664;28;20022;-63
2021/06/03 00:04:50;;;;;;;7.40;4.20;;;10.50;99.90;;;;;;4143299;28;20058;-63
2021/06/03 00:06:51;;;;;;;8.13;4.87;;;10.60;99.90;;;;;;4142784;28;20030;-63
2021/06/03 00:08:52;;;;;;;12.60;4.23;;;10.60;99.90;;;;;;4142200;28;20100;-63
2021/06/03 00:10:56;;;;;;;7.53;3.60;;;10.60;99.90;;;;;;4143133;28;20485;-63
2021/06/03 00:12:58;;;;;;;6.23;4.07;;;10.70;99.90;;;;;;4142075;28;20088;-63
2021/06/03 00:14:59;;;;;;;5.30;3.33;;;10.60;99.90;;;;;;4142840;28;20088;-64
2021/06/03 00:17:01;;;;;;;10.10;4.03;;;10.70;99.90;;;;;;4142044;28;20364;-62
2021/06/03 00:19:08;;;;;;;6.80;3.07;;;10.70;99.90;;;;;;4143034;28;20549;-63
2021/06/03 00:21:10;;;;;;;5.17;3.30;;;10.60;99.90;;;;;;4124046;28;20184;-63
2021/06/03 00:23:12;;;;;;;6.83;3.30;;;10.60;99.90;;;;;;4142459;28;20449;-63
2021/06/03 00:25:13;;;;;;;7.43;3.10;;;10.60;99.90;;;;;;4142158;28;20917;-62
2021/06/03 00:27:14;;;;;;;6.50;2.90;;;10.50;99.90;;;;;;4142767;28;20042;-63
2021/06/03 00:29:16;;;;;;;5.83;3.87;;;10.60;99.90;;;;;;4141589;28;20096;-63
2021/06/03 00:31:17;;;;;;;6.63;3.63;;;10.50;99.90;;;;;;4142776;28;20898;-63
2021/06/03 00:33:18;;;;;;;5.13;3.80;;;10.50;99.90;;;;;;4141541;28;20026;-62
2021/06/03 00:35:20;;;;;;;4.80;3.27;;;10.50;99.90;;;;;;4142783;28;20038;-63
2021/06/03 00:37:21;;;;;;;5.40;3.20;;;10.50;99.90;;;;;;4141889;28;20022;-63
2021/06/03 00:39:23;;;;;;;4.40;3.30;;;10.50;99.90;;;;;;4141823;28;20647;-63
2021/06/03 00:41:24;;;;;;;6.80;3.40;;;10.50;99.90;;;;;;4142181;28;20038;-63
2021/06/03 00:43:25;;;;;;;5.73;4.17;;;10.50;99.90;;;;;;4142699;28;20127;-64
2021/06/03 00:45:29;;;;;;;5.57;3.50;;;10.50;99.90;;;;;;4142006;28;20045;-63
2021/06/03 00:47:31;;;;;;;7.87;3.73;;;10.50;99.90;;;;;;4140727;28;20037;-63
2021/06/03 00:49:32;;;;;;;8.90;4.50;;;10.50;99.90;;;;;;4142789;28;20030;-63
2021/06/03 00:51:33;;;;;;;8.27;4.97;;;10.40;99.90;;;;;;4141906;28;20034;-63
2021/06/03 00:53:36;;;;;;;7.63;5.40;;;10.40;99.90;;;;;;4142938;28;20042;-65
2021/06/03 00:55:39;;;;;;;5.37;3.80;;;10.40;99.90;;;;;;4141172;28;20088;-62
2021/06/03 00:57:41;;;;;;;8.03;4.60;;;10.40;99.90;;;;;;4142643;28;20465;-63
2021/06/03 00:59:42;;;;;;;7.93;4.73;;;10.40;99.90;;;;;;4140005;28;20072;-63
2021/06/03 01:01:43;;;;;;;6.97;4.57;;;10.40;99.90;;;;;;4142802;28;20811;-62
2021/06/03 01:03:44;;;;;;;13.17;5.60;;;10.40;99.90;;;;;;4140021;28;20037;-63
2021/06/03 01:05:51;;;;;;;6.27;4.33;;;10.40;99.90;;;;;;4142730;28;20724;-63
2021/06/03 01:07:56;;;;;;;9.23;4.33;;;10.40;99.90;;;;;;4141023;28;20084;-62
2021/06/03 01:10:12;;;;;;;7.23;3.97;;;10.50;99.90;;;;;;4141831;28;20045;-63
2021/06/03 01:12:26;;;;;;;6.47;3.67;;;10.50;99.90;;;;;;4140776;28;20046;-62
2021/06/03 01:14:30;;;;;;;5.13;3.10;;;10.50;99.90;;;;;;4124031;28;20026;-63
2021/06/03 01:16:34;;;;;;;7.13;3.27;;;10.60;99.90;;;;;;4141475;28;20026;-62
2021/06/03 01:18:37;;;;;;;7.53;3.70;;;10.60;99.90;;;;;;4141905;28;20038;-63
2021/06/03 01:20:39;;;;;;;8.40;3.80;;;10.50;99.90;;;;;;4140829;28;20042;-63
2021/06/03 01:23:08;;;;;;;6.23;3.50;;;10.50;99.90;;;;;;4141699;28;20029;-62
2021/06/03 01:25:12;;;;;;;6.50;3.70;;;10.40;99.90;;;;;;4131567;28;20096;-62
2021/06/03 01:27:20;;;;;;;9.00;3.70;;;10.40;99.90;;;;;;4141928;28;20026;-62
2021/06/03 01:29:22;;;;;;;6.23;4.30;;;10.40;99.90;;;;;;4142442;28;20120;-63
2021/06/03 01:31:23;;;;;;;6.90;3.80;;;10.50;99.90;;;;;;4157216;28;20088;-63
2021/06/03 01:33:28;;;;;;;7.27;3.67;;;10.40;99.90;;;;;;4158046;28;20635;-63
2021/06/03 01:35:33;;;;;;;4.97;3.23;;;10.50;99.90;;;;;;4157885;28;20041;-63
2021/06/03 01:37:35;;;;;;;5.43;3.17;;;10.50;99.90;;;;;;4156334;28;20071;-63
2021/06/03 01:39:37;;;;;;;7.97;4.03;;;10.60;99.90;;;;;;4157136;28;20033;-64
2021/06/03 01:41:39;;;;;;;5.87;3.27;;;10.60;99.90;;;;;;4157669;28;20440;-62
2021/06/03 01:43:43;;;;;;;7.80;4.00;;;10.70;99.90;;;;;;4156091;28;20481;-63
2021/06/03 01:45:47;;;;;;;7.33;3.30;;;10.70;99.90;;;;;;4157688;28;20087;-63
2021/06/03 01:47:52;;;;;;;5.37;3.17;;;10.70;99.90;;;;;;4157011;28;20092;-63
2021/06/03 01:49:53;;;;;;;6.73;4.10;;;10.70;99.90;;;;;;4158377;28;20029;-63
2021/06/03 01:52:00;;;;;;;4.40;3.50;;;10.60;99.90;;;;;;4156110;28;20045;-63
2021/06/03 01:54:01;;;;;;;5.77;2.67;;;10.60;99.90;;;;;;4157455;28;20045;-63
2021/06/03 01:56:07;;;;;;;8.00;3.73;;;10.60;99.90;;;;;;4156879;28;20079;-63
2021/06/03 01:58:09;;;;;;;8.40;3.00;;;10.60;99.90;;;;;;4158025;28;20033;-63
2021/06/03 02:00:15;;;;;;;5.97;3.33;;;10.70;99.90;;;;;;4155534;28;20107;-63
2021/06/03 02:02:16;;;;;;;6.30;3.63;;;10.70;99.90;;;;;;4157066;28;20115;-63
2021/06/03 02:04:17;;;;;;;6.50;3.57;;;10.70;99.90;;;;;;4155868;28;20091;-63
2021/06/03 02:06:19;;;;;;;7.63;3.30;;;10.70;99.90;;;;;;4158469;28;20076;-63
2021/06/03 02:08:20;;;;;;;13.73;3.40;;;10.60;99.90;;;;;;4156002;28;20038;-63
2021/06/03 02:10:23;;;;;;;7.47;3.13;;;10.60;99.90;;;;;;4157491;28;20469;-64
2021/06/03 02:12:26;;;;;;;6.27;3.60;;;10.60;99.90;;;;;;4157112;28;20017;-62
2021/06/03 02:14:34;;;;;;;4.87;3.13;;;10.60;99.90;;;;;;4139066;28;20592;-62
2021/06/03 02:16:43;;;;;;;7.53;3.17;;;10.50;99.90;;;;;;4147084;28;20033;-63
2021/06/03 02:18:52;;;;;;;8.10;3.60;;;10.50;99.90;;;;;;4140434;28;20093;-62
2021/06/03 02:20:55;;;;;;;7.70;3.23;;;10.50;99.90;;;;;;4140592;28;20038;-63
2021/06/03 02:22:57;;;;;;;6.60;3.67;;;10.50;99.90;;;;;;4139511;28;20114;-64
2021/06/03 02:24:58;;;;;;;9.67;4.00;;;10.50;99.90;;;;;;4141279;28;20425;-63
2021/06/03 02:27:00;;;;;;;7.10;3.67;;;10.50;99.90;;;;;;4149538;28;20075;-63
2021/06/03 02:29:02;;;;;;;7.33;4.13;;;10.50;99.90;;;;;;4156710;28;20072;-63
2021/06/03 02:31:03;;;;;;;7.43;3.77;;;10.50;99.90;;;;;;4156197;28;20037;-63
2021/06/03 02:33:05;;;;;;;9.70;3.43;;;10.50;99.90;;;;;;4157576;28;20036;-64
2021/06/03 02:35:10;;;;;;;7.63;3.50;;;10.50;99.90;;;;;;4156383;28;20053;-63
2021/06/03 02:37:13;;;;;;;6.17;3.20;;;10.50;99.90;;;;;;4148794;28;20038;-63
2021/06/03 02:39:14;;;;;;;8.03;3.33;;;10.50;99.90;;;;;;4148759;28;20079;-65
2021/06/03 02:41:16;;;;;;;5.13;3.00;;;10.60;99.90;;;;;;4156357;28;20484;-63
2021/06/03 02:43:17;;;;;;;9.60;4.23;;;10.50;99.90;;;;;;4156326;28;20064;-62
2021/06/03 02:45:30;;;;;;;8.77;4.20;;;10.50;99.90;;;;;;4157246;28;20092;-62
2021/06/03 02:47:31;;;;;;;9.33;4.03;;;10.50;99.90;;;;;;4155603;28;20042;-63
2021/06/03 02:49:33;;;;;;;9.70;2.87;;;10.50;99.90;;;;;;4125996;28;20081;-63
2021/06/03 02:51:34;;;;;;;7.53;3.43;;;10.50;99.90;;;;;;4140151;28;20030;-62
2021/06/03 02:53:35;;;;;;;6.47;2.93;;;10.50;99.90;;;;;;4140636;28;20092;-63
2021/06/03 02:55:37;;;;;;;7.77;4.07;;;10.50;99.90;;;;;;4140518;28;20065;-63
2021/06/03 02:57:38;;;;;;;11.73;3.07;;;10.50;99.90;;;;;;4153847;28;20126;-62
2021/06/03 02:59:39;;;;;;;7.93;3.73;;;10.50;99.90;;;;;;4146908;28;20137;-65
2021/06/03 03:01:40;;;;;;;11.27;4.97;;;10.50;99.90;;;;;;4138924;28;20620;-64
2021/06/03 03:03:42;;;;;;;8.10;4.10;;;10.50;99.90;;;;;;4140988;28;20061;-63
2021/06/03 03:05:44;;;;;;;13.80;5.97;;;10.50;99.90;;;;;;4122381;28;20042;-63
2021/06/03 03:07:45;;;;;;;8.83;5.23;;;10.50;99.90;;;;;;4141112;28;20030;-63
2021/06/03 03:09:47;;;;;;;9.17;3.93;;;10.50;99.90;;;;;;4142254;28;20497;-63
2021/06/03 03:11:49;;;;;;;13.73;5.77;;;10.50;99.90;;;;;;4160658;28;20025;-63
2021/06/03 03:13:50;;;;;;;8.73;4.13;;;10.60;99.90;;;;;;4158353;28;20053;-62
2021/06/03 03:15:51;;;;;;;11.33;5.47;;;10.50;99.90;;;;;;4160227;28;20045;-61
2021/06/03 03:17:53;;;;;;;19.03;8.80;;;10.60;99.90;;;;;;4143411;28;20100;-63
2021/06/03 03:19:54;;;;;;;15.87;6.90;;;10.60;99.90;;;;;;4145324;28;20108;-63
2021/06/03 03:21:55;;;;;;;15.90;7.40;;;10.70;99.90;;;;;;4158596;28;20057;-63
2021/06/03 03:23:57;;;;;;;13.33;5.33;;;10.70;99.90;;;;;;4158930;28;20041;-63
2021/06/03 03:25:58;;;;;;;11.97;5.37;;;10.80;99.90;;;;;;4159223;28;20029;-62
2021/06/03 03:28:00;;;;;;;14.27;7.23;;;10.80;99.90;;;;;;4158864;28;20087;-64
2021/06/03 03:30:04;;;;;;;10.67;5.43;;;10.80;99.90;;;;;;4158769;28;20107;-63
2021/06/03 03:32:05;;;;;;;12.23;6.23;;;10.80;99.90;;;;;;4155866;28;20049;-63
2021/06/03 03:34:06;;;;;;;10.67;5.87;;;10.90;99.90;;;;;;4159136;28;20038;-63
2021/06/03 03:36:08;;;;;;;9.37;4.87;;;10.80;99.90;;;;;;4159267;28;20091;-68
2021/06/03 03:38:09;;;;;;;7.80;4.23;;;10.90;99.90;;;;;;4159637;28;20124;-65
2021/06/03 03:40:14;;;;;;;9.40;4.80;;;10.90;99.90;;;;;;4157756;28;20053;-68
2021/06/03 03:42:15;;;;;;;8.27;4.17;;;11.00;99.90;;;;;;4156641;28;20057;-69
2021/06/03 03:44:16;;;;;;;12.73;5.90;;;11.10;99.90;;;;;;4141739;28;20096;-69
2021/06/03 03:46:17;;;;;;;18.63;7.70;;;11.20;99.90;;;;;;4143433;28;20033;-65
2021/06/03 03:48:18;;;;;;;10.53;5.87;;;11.40;99.90;;;;;;4141960;28;20088;-70
2021/06/03 03:50:21;;;;;;;9.93;5.80;;;11.60;99.90;;;;;;4143486;28;20576;-66
2021/06/03 03:52:22;;;;;;;14.17;6.03;;;11.70;99.90;;;;;;4143314;28;20017;-70
2021/06/03 03:54:23;;;;;;;13.70;5.20;;;11.70;99.90;;;;;;4147841;28;20042;-66
2021/06/03 03:56:24;;;;;;;11.80;4.90;;;11.70;99.90;;;;;;4142458;28;20026;-71
2021/06/03 03:58:25;;;;;;;7.57;4.07;;;11.70;99.90;;;;;;4142897;28;20417;-68
2021/06/03 04:00:30;;;;;;;9.67;3.40;;;11.70;99.90;;;;;;4146608;28;20039;-68
2021/06/03 04:02:31;;;;;;;9.37;3.87;;;11.70;99.90;;;;;;4144491;28;20037;-71
2021/06/03 04:04:32;;;;;;;10.23;4.80;;;11.60;99.90;;;;;;4158407;28;20042;-67
2021/06/03 04:06:38;;;;;;;9.17;4.50;;;11.60;99.90;;;;;;4158450;28;20026;-71
2021/06/03 04:08:39;;;;;;;5.10;3.30;;;11.50;99.90;;;;;;4158429;28;20037;-66
2021/06/03 04:10:40;;;;;;;11.10;3.67;;;11.50;99.90;;;;;;4157315;28;20038;-69
2021/06/03 04:12:41;;;;;;;10.07;3.10;;;11.50;99.90;;;;;;4141150;28;20105;-67
2021/06/03 04:14:42;;;;;;;7.53;3.77;;;11.60;99.90;;;;;;4157821;28;20041;-69
2021/06/03 04:16:44;;;;;;;8.40;4.37;;;11.60;99.90;;;;;;4157557;28;20038;-66
2021/06/03 04:18:45;;;;;;;10.60;3.90;;;11.60;99.90;;;;;;4156768;28;20161;-67
2021/06/03 04:20:46;;;;;;;10.90;4.40;;;11.60;99.90;;;;;;4157702;28;20049;-67
2021/06/03 04:22:49;;;;;;;8.37;4.10;;;11.70;99.90;;;;;;4157005;28;20049;-67
2021/06/03 04:24:50;;;;;;;7.43;3.67;;;11.80;99.90;;;;;;4158036;28;20835;-68
2021/06/03 04:26:51;;;;;;;6.63;3.03;;;11.90;99.90;;;;;;4156862;28;20104;-63
2021/06/03 04:28:53;;;;;;;5.17;3.30;;;11.90;99.90;;;;;;4155972;28;20045;-67
2021/06/03 04:30:54;;;;;;;9.07;3.97;;;11.90;99.90;;;;;;4152590;28;20030;-64
2021/06/03 04:32:55;;;;;;;5.90;3.20;;;12.00;99.90;;;;;;4141997;28;20104;-62
2021/06/03 04:34:56;;;;;;;8.33;3.93;;;12.20;99.90;;;;;;4143619;28;20038;-61
2021/06/03 04:36:59;;;;;;;11.57;3.53;;;12.30;99.90;;;;;;4157653;28;20072;-63
2021/06/03 04:39:00;;;;;;;12.90;3.93;;;12.50;99.90;;;;;;4157893;28;20531;-64
2021/06/03 04:41:01;;;;;;;8.57;3.60;;;12.90;99.90;;;;;;4157243;28;20029;-63
2021/06/03 04:43:03;;;;;;;7.40;3.30;;;13.20;99.90;;;;;;4149799;28;21077;-67
2021/06/03 04:45:06;;;;;;;8.50;3.20;;;13.50;99.90;;;;;;4140787;28;20379;-64
2021/06/03 04:47:07;;;;;;;9.40;3.70;;;13.50;99.90;;;;;;4141889;28;20744;-63
2021/06/03 04:49:08;;;;;;;9.30;3.30;;;13.70;99.90;;;;;;4122747;28;20653;-64
2021/06/03 04:51:09;;;;;;;9.23;3.43;;;13.80;99.90;;;;;;4141340;28;20545;-65
2021/06/03 04:53:10;;;;;;;6.47;3.00;;;14.10;99.90;;;;;;4140805;28;20033;-63
2021/06/03 04:55:18;;;;;;;8.47;3.80;;;14.40;99.90;;;;;;4142384;28;20084;-66
2021/06/03 04:57:19;;;;;;;6.80;3.40;;;14.70;99.90;;;;;;4141062;28;20052;-68
2021/06/03 04:59:22;;;;;;;8.13;3.70;;;14.90;99.90;;;;;;4141811;28;20098;-67
2021/06/03 05:01:23;;;;;;;10.10;3.70;;;15.10;99.90;;;;;;4141482;28;20540;-64
2021/06/03 05:03:24;;;;;;;6.90;3.37;;;15.20;99.90;;;;;;4140803;28;20041;-64
2021/06/03 05:05:26;;;;;;;7.27;3.30;;;15.10;99.90;;;;;;4141394;28;20030;-66
2021/06/03 05:07:27;;;;;;;8.60;3.27;;;15.30;99.90;;;;;;4140831;28;20425;-64
2021/06/03 05:09:28;;;;;;;5.83;3.10;;;15.90;99.90;;;;;;4140952;28;20038;-66
2021/06/03 05:11:30;;;;;;;7.80;2.90;;;16.10;99.90;;;;;;4140339;28;20029;-67
2021/06/03 05:13:31;;;;;;;7.53;2.80;;;16.50;99.90;;;;;;4141999;28;20037;-64
2021/06/03 05:15:32;;;;;;;15.10;5.90;;;17.00;99.90;;;;;;4139334;28;20473;-65
2021/06/03 05:17:35;;;;;;;16.70;6.00;;;17.50;99.90;;;;;;4140854;28;20108;-64
2021/06/03 05:19:36;;;;;;;15.10;6.83;;;18.30;99.10;;;;;;4140478;28;20080;-64
2021/06/03 05:21:37;;;;;;;11.93;4.13;;;18.60;97.00;;;;;;4141654;28;20469;-65
2021/06/03 05:23:39;;;;;;;9.75;4.22;;;19.30;95.60;;;;;;4140242;28;20315;-65
2021/06/03 05:25:40;;;;;;;9.30;3.25;;;19.80;93.70;;;;;;4141703;28;20033;-63
2021/06/03 05:27:41;;;;;;;11.07;2.75;;;20.10;91.90;;;;;;4140539;28;20038;-63
2021/06/03 05:29:42;;;;;;;5.25;3.20;;;20.20;90.80;;;;;;4141148;28;20371;-66
2021/06/03 05:31:45;;;;;;;7.60;2.72;;;20.30;89.70;;;;;;4140803;28;20034;-64
2021/06/03 05:33:46;;;;;;;3.03;2.08;;;20.40;87.30;;;;;;4140914;28;20022;-64
2021/06/03 05:35:47;;;;;;;5.05;2.05;;;20.10;87.20;;;;;;4140419;28;20092;-64
2021/06/03 05:37:49;;;;;;;6.97;2.55;;;20.40;86.40;;;;;;4140429;28;20030;-64
2021/06/03 05:39:50;;;;;;;5.40;2.03;;;21.20;83.60;;;;;;4139900;28;20092;-64
2021/06/03 05:41:51;;;;;;;7.63;4.22;;;21.20;81.40;;;;;;4139722;28;20034;-64
2021/06/03 05:43:52;;;;;;;4.57;2.17;;;20.90;80.90;;;;;;4141618;28;20029;-64
2021/06/03 05:45:53;;;;;;;5.68;1.90;;;20.80;81.20;;;;;;4140269;28;20533;-64
2021/06/03 05:47:54;;;;;;;8.05;3.45;;;20.90;80.50;;;;;;4141417;28;20030;-64
2021/06/03 05:49:56;;;;;;;11.80;6.50;;;20.70;80.00;;;;;;4140351;28;20759;-64
2021/06/03 05:52:02;;;;;;;5.75;2.65;;;20.90;79.60;;;;;;4141728;28;20042;-64
2021/06/03 05:54:03;;;;;;;15.57;9.45;;;20.60;79.20;;;;;;4140465;28;20018;-66
2021/06/03 05:56:05;;;;;;;3.97;2.20;;;20.70;79.20;;;;;;4141511;28;20089;-65
2021/06/03 05:58:06;;;;;;;6.88;2.97;;;20.50;78.70;;;;;;4140129;28;20034;-65
2021/06/03 06:00:13;;;;;;;12.07;5.05;;;20.80;78.90;;;;;;4141712;28;20042;-65
2021/06/03 06:02:20;;;;;;;5.18;2.72;;;21.70;77.10;;;;;;4139834;28;20095;-63
2021/06/03 06:06:25;;;;;;;9.93;6.38;;;22.40;72.00;;;;;;4139483;28;20065;-65
2021/06/03 06:08:27;;;;;;;5.55;3.80;;;22.50;71.90;;;;;;4140740;28;20104;-64
2021/06/03 06:10:28;;;;;;;8.00;3.47;;;22.70;70.70;;;;;;4139909;28;20645;-65
2021/06/03 06:12:29;;;;;;;4.13;2.03;;;23.00;70.10;;;;;;4140419;28;20286;-64
2021/06/03 06:14:30;;;;;;;4.05;2.00;;;23.20;69.10;;;;;;4140384;28;20429;-63
2021/06/03 06:16:32;;;;;;;3.33;1.80;;;23.30;68.10;;;;;;4121968;28;20050;-65
2021/06/03 06:18:34;;;;;;;4.10;1.85;;;23.50;67.70;;;;;;4140827;28;20157;-65
2021/06/03 06:20:38;;;;;;;5.32;2.22;;;23.80;66.80;;;;;;4139800;28;20095;-67
2021/06/03 06:22:40;;;;;;;2.13;1.50;;;24.20;65.60;;;;;;4140979;28;20046;-65
2021/06/03 06:24:45;;;;;;;6.13;1.88;;;24.40;64.70;;;;;;4139559;28;20041;-65
2021/06/03 06:26:47;;;;;;;6.03;1.90;;;24.70;63.70;;;;;;4140989;28;20030;-64
2021/06/03 06:28:49;;;;;;;4.40;2.03;;;24.60;62.50;;;;;;4139563;28;20081;-64
2021/06/03 06:30:50;;;;;;;3.10;1.30;;;24.70;62.30;;;;;;4139798;28;20095;-64
2021/06/03 06:32:51;;;;;;;4.18;1.40;;;24.50;61.30;;;;;;4138634;28;20088;-64
2021/06/03 06:34:52;;;;;;;6.68;1.75;;;24.70;61.50;;;;;;4141322;28;20099;-65
2021/06/03 06:36:53;;;;;;;4.20;1.70;;;24.70;60.80;;;;;;4139844;28;20064;-65
2021/06/03 06:38:55;;;;;;;5.28;1.58;;;24.60;60.60;;;;;;4139660;28;20042;-64
2021/06/03 06:40:56;;;;;;;6.22;2.10;;;24.30;60.40;;;;;;4139256;28;20176;-66
2021/06/03 06:42:57;;;;;;;14.10;2.65;;;23.70;59.00;;;;;;4140120;28;20080;-65
2021/06/03 06:44:58;;;;;;;10.18;2.00;;;22.70;59.50;;;;;;4138138;28;20452;-66
2021/06/03 06:46:59;;;;;;;6.85;1.45;;;21.80;60.80;;;;;;4139518;28;20042;-65
2021/06/03 06:49:01;;;;;;;7.57;1.42;;;21.80;61.50;;;;;;4140248;28;20548;-66
2021/06/03 06:51:02;;;;;;;8.77;1.90;;;21.40;61.10;;;;;;4138680;28;20109;-65
2021/06/03 06:53:05;;;;;;;4.60;2.33;;;21.90;60.70;;;;;;4122307;28;20502;-67
2021/06/03 06:55:08;;;;;;;7.95;1.80;;;21.70;60.20;;;;;;4138867;28;20109;-67
2021/06/03 06:57:09;;;;;;;8.68;1.90;;;21.10;60.90;;;;;;4140909;28;20046;-67
2021/06/03 06:59:10;;;;;;;4.38;1.63;;;20.80;61.90;;;;;;4138885;28;20038;-67
2021/06/03 07:01:11;;;;;;;9.40;2.08;;;20.40;61.90;;;;;;4140741;28;20038;-68
2021/06/03 07:03:12;;;;;;;5.68;2.08;;;20.40;62.80;;;;;;4138208;28;20037;-66
2021/06/03 07:05:14;;;;;;;5.97;1.75;;;20.90;62.50;;;;;;4141145;28;20042;-68
2021/06/03 07:07:15;;;;;;;9.35;1.58;;;20.70;61.80;;;;;;4139185;28;20029;-67
2021/06/03 07:09:16;;;;;;;5.80;1.60;;;20.40;62.80;;;;;;4140582;28;20496;-68
2021/06/03 07:11:17;;;;;;;6.22;1.73;;;20.20;62.60;;;;;;4139514;28;20084;-64
2021/06/03 07:13:18;;;;;;;5.85;1.30;;;20.00;62.60;;;;;;4140177;28;20037;-68
2021/06/03 07:15:20;;;;;;;6.85;1.63;;;20.20;63.20;;;;;;4121781;28;20050;-66
2021/06/03 07:17:21;;;;;;;7.10;1.65;;;20.60;63.30;;;;;;4139418;28;20076;-67
2021/06/03 07:19:22;;;;;;;3.88;1.27;;;20.60;63.20;;;;;;4139870;28;20038;-65
2021/06/03 07:21:23;;;;;;;2.50;1.80;;;21.10;62.70;;;;;;4139054;28;20552;-67
2021/06/03 07:23:25;;;;;;;7.20;1.70;;;20.70;62.40;;;;;;4139725;28;20557;-65
2021/06/03 07:25:26;;;;;;;5.07;1.58;;;20.90;63.00;;;;;;4138095;28;20165;-64
2021/06/03 07:27:28;;;;;;;5.03;1.33;;;21.20;62.80;;;;;;4139940;28;20498;-68
2021/06/03 07:29:29;;;;;;;5.57;1.38;;;21.50;62.50;;;;;;4139710;28;20511;-67
2021/06/03 07:31:34;;;;;;;7.70;1.65;;;21.00;62.10;;;;;;4139196;28;20088;-65
2021/06/03 07:33:35;;;;;;;7.03;2.15;;;20.80;63.20;;;;;;4137746;28;20112;-65
2021/06/03 07:35:37;;;;;;;4.30;2.28;;;20.50;63.30;;;;;;4140280;28;20034;-67
2021/06/03 07:37:40;;;;;;;15.80;3.03;;;20.30;63.30;;;;;;4138278;28;20482;-67
2021/06/03 07:39:41;;;;;;;6.68;1.70;;;20.10;63.60;;;;;;4139659;28;20038;-65
2021/06/03 07:41:42;;;;;;;15.77;3.67;;;19.90;63.90;;;;;;4138796;28;20041;-64
2021/06/03 07:43:43;;;;;;;4.70;1.50;;;19.80;64.80;;;;;;4139392;28;20037;-67
2021/06/03 07:45:46;;;;;;;5.57;1.27;;;19.50;64.50;;;;;;4138835;28;20096;-65
2021/06/03 07:47:47;;;;;;;3.17;1.30;;;19.40;64.60;;;;;;4139643;28;20441;-66
2021/06/03 07:49:48;;;;;;;6.45;2.40;;;19.30;65.30;;;;;;4139214;28;20088;-65
2021/06/03 07:51:49;;;;;;;4.88;2.08;;;19.40;65.40;;;;;;4138709;28;20038;-64
2021/06/03 07:53:50;;;;;;;8.13;1.98;;;19.50;65.40;;;;;;4140147;28;20092;-63
2021/06/03 07:55:51;;;;;;;7.25;1.80;;;19.80;65.50;;;;;;4139782;28;20034;-63
2021/06/03 07:57:57;;;;;;;6.93;1.50;;;19.90;65.60;;;;;;4143141;28;20115;-63
2021/06/03 07:59:59;;;;;;;6.40;1.35;;;20.10;64.90;;;;;;4141095;28;20100;-63
2021/06/03 08:02:00;;;;;;;5.57;1.92;;;20.30;64.90;;;;;;4143198;28;20092;-66
2021/06/03 08:04:01;;;;;;;3.22;1.60;;;20.40;64.70;;;;;;4140592;28;20053;-68
2021/06/03 08:06:03;;;;;;;4.57;2.15;;;20.20;64.40;;;;;;4142948;28;20025;-65
2021/06/03 08:08:04;;;;;;;3.53;1.55;;;20.20;65.00;;;;;;4123387;28;20046;-64
2021/06/03 08:10:08;;;;;;;3.60;1.20;;;20.10;65.30;;;;;;4143055;28;20488;-63
2021/06/03 08:12:09;;;;;;;2.15;1.85;;;20.00;65.30;;;;;;4141310;28;20026;-65
2021/06/03 08:14:11;;;;;;;7.40;2.08;;;19.90;65.00;;;;;;4142832;28;20676;-65
2021/06/03 08:16:13;;;;;;;8.88;2.45;;;19.80;65.30;;;;;;4141771;28;20425;-65
2021/06/03 08:18:14;;;;;;;11.02;2.78;;;19.80;65.50;;;;;;4141998;28;20041;-64
2021/06/03 08:20:23;;;;;;;7.20;1.70;;;20.00;66.00;;;;;;4141397;28;20567;-64
2021/06/03 08:22:24;;;;;;;5.60;1.60;;;20.30;66.00;;;;;;4141533;28;20551;-63
2021/06/03 08:24:25;;;;;;;7.30;1.70;;;20.70;65.50;;;;;;4141945;28;20026;-65
2021/06/03 08:26:28;;;;;;;3.53;1.10;;;20.90;64.50;;;;;;4141827;28;20552;-65
2021/06/03 08:28:29;;;;;;;3.72;1.75;;;21.00;64.00;;;;;;4142123;28;20068;-64
2021/06/03 08:30:31;;;;;;;5.45;1.65;;;21.30;63.40;;;;;;4141260;28;20033;-66
2021/06/03 08:32:32;;;;;;;11.10;2.50;;;20.90;63.00;;;;;;4141552;28;20042;-64
2021/06/03 08:34:34;;;;;;;14.77;3.42;;;20.50;63.80;;;;;;4141034;28;20029;-64
2021/06/03 08:36:35;;;;;;;9.35;2.03;;;20.80;65.30;;;;;;4141739;28;20189;-64
2021/06/03 08:38:36;;;;;;;7.50;1.60;;;20.60;63.80;;;;;;4140878;28;20096;-63
2021/06/03 08:40:41;;;;;;;4.15;1.52;;;20.60;64.40;;;;;;4142307;28;20042;-67
2021/06/03 08:42:43;;;;;;;2.95;1.17;;;20.60;64.30;;;;;;4140705;28;20548;-67
2021/06/03 08:44:45;;;;;;;1.95;1.30;;;20.60;63.80;;;;;;4142399;28;20033;-65
2021/06/03 08:46:46;;;;;;;5.32;1.40;;;20.60;63.90;;;;;;4140853;28;20056;-64
2021/06/03 08:48:47;;;;;;;4.45;1.85;;;20.60;63.50;;;;;;4141633;28;20030;-67
2021/06/03 08:50:51;;;;;;;4.32;1.42;;;20.60;63.50;;;;;;4140827;28;20084;-64
2021/06/03 08:52:56;;;;;;;2.55;1.25;;;20.80;64.00;;;;;;4141382;28;20133;-67
2021/06/03 08:54:59;;;;;;;6.72;1.50;;;21.30;63.40;;;;;;4141485;28;20034;-65
2021/06/03 08:57:01;;;;;;;3.40;1.30;;;21.80;62.90;;;;;;4140410;28;20046;-64
2021/06/03 08:59:02;;;;;;;2.42;1.50;;;21.90;62.10;;;;;;4140883;28;20107;-65
2021/06/03 09:01:05;;;;;;;2.40;1.58;;;21.20;61.40;;;;;;4140886;28;20103;-64
2021/06/03 09:03:06;;;;;;;4.45;1.45;;;20.70;62.80;;;;;;4141138;28;20100;-64
2021/06/03 09:05:08;;;;;;;4.18;1.75;;;20.40;63.20;;;;;;4139960;28;20096;-65
2021/06/03 09:07:28;;;;;;;6.00;2.30;;;20.40;63.50;;;;;;4141058;28;20045;-64
2021/06/03 09:09:30;;;;;;;3.25;1.17;;;20.40;63.30;;;;;;4140996;28;20033;-64
2021/06/03 09:11:32;;;;;;;7.82;2.08;;;20.40;63.40;;;;;;4141828;28;20906;-63
2021/06/03 09:13:40;;;;;;;5.97;1.33;;;20.60;63.90;;;;;;4140907;28;20033;-65
2021/06/03 09:15:50;;;;;;;4.72;1.52;;;21.00;63.20;;;;;;4141016;28;20046;-64
2021/06/03 09:17:51;;;;;;;8.30;1.80;;;20.80;62.60;;;;;;4140578;28;20026;-64
2021/06/03 09:19:53;;;;;;;3.17;1.45;;;21.00;63.30;;;;;;4141412;28;20025;-67
2021/06/03 09:21:54;;;;;;;5.13;1.33;;;21.10;63.00;;;;;;4140472;28;20029;-66
2021/06/03 09:24:03;;;;;;;4.45;1.20;;;21.10;62.80;;;;;;4142248;28;20120;-66
2021/06/03 09:26:13;;;;;;;3.33;0.95;;;20.90;62.40;;;;;;4140568;28;20038;-65
2021/06/03 09:28:17;;;;;;;6.13;0.95;;;20.60;62.60;;;;;;4141793;28;20080;-67
2021/06/03 09:30:18;;;;;;;1.20;1.10;;;20.60;62.50;;;;;;4140076;28;20084;-65
2021/06/03 09:32:20;;;;;;;5.63;1.13;;;20.70;62.60;;;;;;4141364;28;20486;-64
2021/06/03 09:34:22;;;;;;;5.97;1.33;;;20.90;62.50;;;;;;4139890;28;20026;-66
2021/06/03 09:36:47;;;;;;;3.67;1.35;;;21.10;62.60;;;;;;4141579;28;20022;-65
2021/06/03 09:38:50;;;;;;;5.28;1.13;;;21.30;63.00;;;;;;4139139;28;20034;-65
2021/06/03 09:40:52;;;;;;;3.53;1.80;;;21.60;63.00;;;;;;4141461;28;20218;-65
2021/06/03 09:43:07;;;;;;;4.80;1.17;;;21.50;61.80;;;;;;4139820;28;20543;-66
2021/06/03 09:45:09;;;;;;;3.63;0.95;;;21.40;61.00;;;;;;4141341;28;20026;-66
2021/06/03 09:47:21;;;;;;;3.00;1.10;;;21.20;62.40;;;;;;4139817;28;20026;-64
2021/06/03 09:49:25;;;;;;;4.70;1.55;;;21.20;61.40;;;;;;4141301;28;20080;-65
2021/06/03 09:51:29;;;;;;;6.45;1.55;;;21.30;61.60;;;;;;4138879;28;20076;-66
2021/06/03 09:53:52;;;;;;;4.72;1.30;;;21.40;61.30;;;;;;4140172;28;20087;-65
2021/06/03 09:56:24;;;;;;;2.80;1.33;;;21.50;60.50;;;;;;4139620;28;20116;-66
2021/06/03 09:58:38;;;;;;;3.45;1.20;;;21.70;60.30;;;;;;4140683;28;20540;-66
2021/06/03 10:00:46;;;;;;;3.13;1.40;;;21.80;60.00;;;;;;4139959;28;20173;-67
2021/06/03 10:02:52;;;;;;;5.22;1.40;;;21.80;59.90;;;;;;4141209;28;20577;-65
2021/06/03 10:04:54;;;;;;;1.63;1.00;;;21.60;60.00;;;;;;4139888;28;20120;-65
2021/06/03 10:07:08;;;;;;;3.33;2.00;;;21.50;60.70;;;;;;4141001;28;20030;-68
2021/06/03 10:09:09;;;;;;;3.25;0.82;;;21.40;60.40;;;;;;4139832;28;20448;-68
2021/06/03 10:11:10;;;;;;;2.95;1.30;;;21.40;60.50;;;;;;4141301;28;20099;-67
2021/06/03 10:13:11;;;;;;;3.63;1.45;;;21.20;59.90;;;;;;4138939;28;20041;-66
2021/06/03 10:15:23;;;;;;;1.77;1.15;;;21.10;60.20;;;;;;4140177;28;20073;-67
2021/06/03 10:17:27;;;;;;;2.20;1.00;;;21.20;60.80;;;;;;4139797;28;20030;-66
2021/06/03 10:19:29;;;;;;;3.25;0.90;;;21.40;60.50;;;;;;4140557;28;20053;-65
2021/06/03 10:21:32;;;;;;;4.32;1.27;;;21.50;60.20;;;;;;4139194;28;20046;-68
2021/06/03 10:23:34;;;;;;;3.95;1.75;;;21.60;60.10;;;;;;4139906;28;20413;-68
2021/06/03 10:25:37;;;;;;;1.60;1.40;;;21.50;60.30;;;;;;4140774;28;20021;-68
2021/06/03 10:27:43;;;;;;;13.38;1.48;;;21.40;60.60;;;;;;4140404;28;20158;-67
2021/06/03 10:29:44;;;;;;;5.10;1.10;;;21.20;60.50;;;;;;4140913;28;20087;-66
2021/06/03 10:31:45;;;;;;;5.35;1.40;;;20.80;60.70;;;;;;4139486;28;20084;-70
2021/06/03 10:33:47;;;;;;;3.35;1.55;;;20.70;61.30;;;;;;4140063;28;20030;-65
2021/06/03 10:35:50;;;;;;;4.35;1.10;;;20.60;61.50;;;;;;4139239;28;20076;-68
2021/06/03 10:37:52;;;;;;;5.10;1.88;;;20.50;62.10;;;;;;4140857;28;20025;-65
2021/06/03 10:39:55;;;;;;;4.18;1.15;;;20.60;62.30;;;;;;4121542;28;20043;-66